Time;durP1;ratioP1;P1;durP2;ratioP2;P2;SDS_P1;SDS_P2;PMS_P1;PMS_P2;Temp;Humidity;BMP_temperature;BMP_pressure;BME280_temperature;BME280_humidity;BME280_pressure;Samples;Min_cycle;Max_cycle;Signal;HPM_P1;HPM_P2
2022/11/23 00:01:13;;;;;;;64.65;32.92;;;;;;;0.37;100.00;152640.75;5027326;28;20098;-76
2022/11/23 00:03:39;;;;;;;70.68;34.63;;;;;;;0.32;100.00;152628.03;5042004;28;20429;-76
2022/11/23 00:06:04;;;;;;;72.72;34.15;;;;;;;0.32;100.00;152628.03;5024496;28;20095;-76
2022/11/23 00:08:30;;;;;;;68.15;34.40;;;;;;;0.43;100.00;152653.50;5027517;28;20033;-76
2022/11/23 00:10:59;;;;;;;68.40;33.70;;;;;;;0.38;100.00;152643.31;5044487;28;20029;-76
2022/11/23 00:13:25;;;;;;;65.68;32.58;;;;;;;0.36;100.00;152636.97;5044204;28;20087;-76
2022/11/23 00:15:50;;;;;;;76.63;34.58;;;;;;;0.30;100.00;152621.66;5038551;28;20049;-75
2022/11/23 00:18:16;;;;;;;65.05;34.22;;;;;;;0.32;100.00;152626.75;5008394;28;20025;-74
2022/11/23 00:20:41;;;;;;;71.78;35.78;;;;;;;0.33;100.00;152629.31;5020532;28;20486;-76
2022/11/23 00:23:08;;;;;;;67.43;34.55;;;;;;;0.35;100.00;152635.66;5039552;28;20040;-76
2022/11/23 00:25:34;;;;;;;71.10;34.72;;;;;;;0.29;100.00;152620.38;5033429;28;20040;-76
2022/11/23 00:28:00;;;;;;;65.72;33.13;;;;;;;0.34;100.00;152631.81;5012582;28;20036;-76
2022/11/23 00:30:27;;;;;;;73.40;37.67;;;;;;;0.33;100.00;152630.56;5023609;28;20029;-75
2022/11/23 00:32:54;;;;;;;70.43;35.17;;;;;;;0.31;100.00;152624.22;5076110;28;20048;-76
2022/11/23 00:35:19;;;;;;;70.18;35.05;;;;;;;0.37;100.00;152640.75;5026513;28;20044;-76
2022/11/23 00:37:45;;;;;;;71.70;34.15;;;;;;;0.33;100.00;152629.31;5049255;28;20048;-76
2022/11/23 00:40:11;;;;;;;63.92;34.25;;;;;;;0.40;100.00;152647.16;5030037;28;20163;-77
2022/11/23 00:42:37;;;;;;;68.85;34.53;;;;;;;0.37;100.00;152639.50;5025834;28;20122;-76
2022/11/23 00:45:03;;;;;;;67.13;34.00;;;;;;;0.42;100.00;152652.25;5029612;28;20194;-75
2022/11/23 00:47:29;;;;;;;70.93;33.70;;;;;;;0.35;100.00;152634.41;5029417;28;20064;-76
2022/11/23 00:49:56;;;;;;;67.68;32.58;;;;;;;0.37;100.00;152640.75;5027498;28;20060;-76
2022/11/23 00:52:21;;;;;;;67.68;34.15;;;;;;;0.39;100.00;152645.84;5012799;28;20076;-76
2022/11/23 00:54:47;;;;;;;69.75;35.53;;;;;;;0.36;100.00;152638.22;5030930;28;20070;-78
2022/11/23 00:57:12;;;;;;;67.40;33.53;;;;;;;0.37;100.00;152639.50;5030959;28;20043;-76
2022/11/23 00:59:38;;;;;;;71.30;34.40;;;;;;;0.36;100.00;152636.97;5014509;28;20021;-76
2022/11/23 01:02:04;;;;;;;64.82;34.20;;;;;;;0.39;100.00;152644.59;5028738;28;20040;-75
2022/11/23 01:04:30;;;;;;;71.50;33.90;;;;;;;0.36;100.00;152636.97;5047918;28;20146;-75
2022/11/23 01:06:58;;;;;;;64.32;33.47;;;;;;;0.43;100.00;152654.75;5013695;28;20047;-75
2022/11/23 01:09:25;;;;;;;65.38;33.22;;;;;;;0.42;100.00;152652.25;5010484;28;20037;-76
2022/11/23 01:11:52;;;;;;;69.28;33.22;;;;;;;0.42;100.00;152650.97;5046863;28;20064;-76
2022/11/23 01:14:22;;;;;;;68.18;33.83;;;;;;;0.42;100.00;152652.25;5046590;28;20037;-76
2022/11/23 01:16:49;;;;;;;70.78;34.30;;;;;;;0.42;100.00;152652.25;5023629;28;20058;-77
2022/11/23 01:19:19;;;;;;;64.70;31.88;;;;;;;0.38;100.00;152643.31;5019852;28;20041;-75
2022/11/23 01:21:48;;;;;;;66.28;34.28;;;;;;;0.43;100.00;152653.50;5044595;28;20390;-77
2022/11/23 01:24:20;;;;;;;66.03;33.95;;;;;;;0.43;100.00;152653.50;5028457;28;20037;-76
2022/11/23 01:26:49;;;;;;;62.35;33.50;;;;;;;0.44;100.00;152656.06;5030341;28;20033;-76
2022/11/23 01:29:15;;;;;;;64.60;32.70;;;;;;;0.45;100.00;152659.84;5020455;28;20041;-78
2022/11/23 01:31:41;;;;;;;62.72;32.17;;;;;;;0.49;100.00;152670.09;5026929;28;20064;-77
2022/11/23 01:34:07;;;;;;;64.47;33.55;;;;;;;0.48;100.00;152667.50;5023356;28;20037;-76
2022/11/23 01:36:33;;;;;;;62.75;32.88;;;;;;;0.51;100.00;152673.88;5036541;28;20402;-75
2022/11/23 01:39:01;;;;;;;66.32;31.58;;;;;;;0.54;100.00;152682.78;5040810;28;20067;-75
2022/11/23 01:41:30;;;;;;;65.72;32.50;;;;;;;0.49;100.00;152670.09;5019951;28;20049;-76
2022/11/23 01:43:56;;;;;;;66.50;33.15;;;;;;;0.47;100.00;152663.69;5023591;28;20041;-75
2022/11/23 01:46:22;;;;;;;67.18;31.77;;;;;;;0.57;100.00;152689.19;5043340;28;20099;-76
2022/11/23 01:49:02;;;;;;;66.07;33.20;;;;;;;0.56;100.00;152687.88;5028763;28;20094;-76
2022/11/23 01:51:34;;;;;;;60.83;31.88;;;;;;;0.58;100.00;152691.72;5009437;28;20242;-77
2022/11/23 01:54:03;;;;;;;57.30;30.70;;;;;;;0.69;100.00;152718.47;5029713;28;20036;-77
2022/11/23 01:56:35;;;;;;;65.18;31.05;;;;;;;0.63;100.00;152703.22;5016679;28;20178;-76
2022/11/23 01:59:04;;;;;;;61.65;30.70;;;;;;;0.57;100.00;152690.44;5039156;28;20177;-76
2022/11/23 02:01:30;;;;;;;61.15;31.13;;;;;;;0.57;100.00;152689.19;5023924;28;20036;-76
2022/11/23 02:03:59;;;;;;;57.33;30.70;;;;;;;0.64;100.00;152705.72;5025743;28;20076;-77
2022/11/23 02:06:25;;;;;;;57.53;31.05;;;;;;;0.67;100.00;152714.66;5045292;28;20091;-76
2022/11/23 02:08:52;;;;;;;59.20;30.48;;;;;;;0.74;100.00;152731.25;5043951;28;20486;-76
2022/11/23 02:11:19;;;;;;;57.60;30.48;;;;;;;0.77;100.00;152740.16;5027891;28;20037;-76
2022/11/23 02:13:49;;;;;;;60.08;31.02;;;;;;;0.80;100.00;152745.25;5013332;28;20135;-76
2022/11/23 02:16:15;;;;;;;57.53;30.58;;;;;;;0.79;100.00;152743.94;5041433;28;20124;-75
2022/11/23 02:18:45;;;;;;;58.90;31.13;;;;;;;0.76;100.00;152736.34;5009072;28;20048;-76
2022/11/23 02:21:11;;;;;;;55.40;30.65;;;;;;;0.80;100.00;152746.53;5022126;28;20033;-76
2022/11/23 02:23:52;;;;;;;57.70;30.27;;;;;;;0.90;100.00;152772.00;5030163;28;20066;-76
2022/11/23 02:26:23;;;;;;;59.72;31.00;;;;;;;0.92;100.00;152775.81;5028693;28;20044;-76
2022/11/23 02:29:07;;;;;;;57.50;29.83;;;;;;;0.88;100.00;152766.91;5045457;28;20064;-76
2022/11/23 02:31:33;;;;;;;55.03;29.90;;;;;;;0.93;100.00;152779.66;5011700;28;20098;-77
2022/11/23 02:33:59;;;;;;;58.75;30.42;;;;;;;0.87;100.00;152764.38;5043994;28;20047;-76
2022/11/23 02:36:27;;;;;;;61.25;31.10;;;;;;;0.86;100.00;152760.53;5044669;28;20052;-77
2022/11/23 02:38:56;;;;;;;56.72;29.50;;;;;;;0.91;100.00;152773.28;5026884;28;20397;-76
2022/11/23 02:41:21;;;;;;;51.83;28.63;;;;;;;0.94;100.00;152782.22;5034626;28;20041;-78
2022/11/23 02:43:52;;;;;;;52.10;29.25;;;;;;;0.90;100.00;152772.00;5029424;28;20090;-76
2022/11/23 02:46:17;;;;;;;55.22;30.33;;;;;;;0.94;100.00;152782.22;5023576;28;20098;-75
2022/11/23 02:48:47;;;;;;;51.53;29.30;;;;;;;0.96;100.00;152786.00;5023729;28;20045;-76
2022/11/23 02:51:13;;;;;;;57.80;29.73;;;;;;;1.02;100.00;152800.03;5029026;28;20060;-76
2022/11/23 02:53:38;;;;;;;55.45;30.30;;;;;;;1.04;100.00;152805.16;5047046;28;20048;-75
2022/11/23 02:56:04;;;;;;;54.97;28.40;;;;;;;0.97;100.00;152788.56;5012640;28;20689;-76
2022/11/23 02:58:30;;;;;;;51.03;28.63;;;;;;;1.00;100.00;152794.94;5079131;28;20068;-76
2022/11/23 03:00:55;;;;;;;54.00;29.58;;;;;;;1.00;100.00;152794.94;5009555;28;20542;-76
2022/11/23 03:03:21;;;;;;;54.83;28.58;;;;;;;1.01;100.00;152798.75;5029776;28;20098;-75
2022/11/23 03:05:47;;;;;;;54.88;28.33;;;;;;;1.07;100.00;152812.78;5029469;28;20040;-76
2022/11/23 03:08:13;;;;;;;54.55;28.25;;;;;;;1.15;100.00;152834.47;5029770;28;20495;-76
2022/11/23 03:10:39;;;;;;;60.75;29.30;;;;;;;1.12;100.00;152825.53;5031272;28;20555;-76
2022/11/23 03:13:04;;;;;;;53.85;27.88;;;;;;;1.17;100.00;152839.56;5049971;28;20033;-76
2022/11/23 03:15:34;;;;;;;53.58;28.35;;;;;;;1.14;100.00;152830.63;5050671;28;20045;-76
2022/11/23 03:18:01;;;;;;;50.50;28.10;;;;;;;1.13;100.00;152828.06;5025995;28;20078;-76
2022/11/23 03:20:28;;;;;;;49.25;27.02;;;;;;;1.20;100.00;152844.66;5006109;28;20037;-76
2022/11/23 03:22:53;;;;;;;55.05;28.35;;;;;;;1.16;100.00;152835.72;5025189;28;20037;-76
2022/11/23 03:25:21;;;;;;;48.22;27.25;;;;;;;1.17;100.00;152838.31;5010743;28;20041;-75
2022/11/23 03:27:50;;;;;;;50.10;28.10;;;;;;;1.22;100.00;152851.00;5043995;28;20041;-76
2022/11/23 03:30:17;;;;;;;51.95;27.45;;;;;;;1.19;100.00;152842.09;5055743;28;20029;-75
2022/11/23 03:32:43;;;;;;;50.22;27.15;;;;;;;1.26;100.00;152861.25;5022871;28;20046;-76
2022/11/23 03:35:09;;;;;;;52.03;27.67;;;;;;;1.35;100.00;152884.16;5010076;28;20572;-75
2022/11/23 03:37:44;;;;;;;47.13;25.98;;;;;;;1.28;100.00;152866.34;5021670;28;20395;-76
2022/11/23 03:40:10;;;;;;;51.58;26.88;;;;;;;1.30;100.00;152870.13;5024921;28;20033;-75
2022/11/23 03:43:15;;;;;;;47.50;26.05;;;;;;;1.37;100.00;152888.00;5023551;28;20040;-75
2022/11/23 03:45:41;;;;;;;44.72;26.20;;;;;;;1.33;100.00;152879.06;5027273;28;20047;-75
2022/11/23 03:48:07;;;;;;;49.03;26.75;;;;;;;1.28;100.00;152865.03;5042253;28;20040;-75
2022/11/23 03:50:32;;;;;;;48.33;28.13;;;;;;;1.25;100.00;152858.69;5023902;28;20495;-75
2022/11/23 03:52:59;;;;;;;47.88;26.13;;;;;;;1.26;100.00;152859.94;5042204;28;20037;-75
2022/11/23 03:55:25;;;;;;;48.83;27.17;;;;;;;1.24;100.00;152856.09;5039931;28;20041;-75
2022/11/23 03:57:53;;;;;;;50.25;26.05;;;;;;;1.29;100.00;152867.63;5041800;28;20486;-76
2022/11/23 04:00:19;;;;;;;48.35;27.08;;;;;;;1.33;100.00;152879.06;5044961;28;20033;-76
2022/11/23 04:02:45;;;;;;;47.25;25.65;;;;;;;1.49;100.00;152918.59;5042124;28;20037;-75
2022/11/23 04:05:30;;;;;;;49.35;26.05;;;;;;;1.40;100.00;152895.66;5033173;28;20382;-73
2022/11/23 04:08:22;;;;;;;53.05;27.02;;;;;;;1.39;100.00;152891.81;5035502;28;21060;-76
2022/11/23 04:10:48;;;;;;;48.35;25.85;;;;;;;1.39;100.00;152893.09;5022546;28;20068;-75
2022/11/23 04:13:17;;;;;;;53.58;27.08;;;;;;;1.42;100.00;152900.75;5026847;28;20120;-76
2022/11/23 04:15:43;;;;;;;47.65;25.95;;;;;;;1.40;100.00;152895.66;5011430;28;20123;-74
2022/11/23 04:18:09;;;;;;;54.33;28.00;;;;;;;1.38;100.00;152890.56;5016657;28;20036;-76
2022/11/23 04:20:37;;;;;;;51.33;26.50;;;;;;;1.39;100.00;152891.81;5029626;28;20110;-76
2022/11/23 04:23:02;;;;;;;49.08;27.48;;;;;;;1.41;100.00;152896.91;5043640;28;20036;-75
2022/11/23 04:25:29;;;;;;;46.03;25.40;;;;;;;1.42;100.00;152899.50;5063379;28;20052;-76
2022/11/23 04:27:56;;;;;;;49.30;27.55;;;;;;;1.39;100.00;152891.81;5034175;28;20029;-76
2022/11/23 04:30:23;;;;;;;52.15;27.40;;;;;;;1.39;100.00;152893.09;5048007;28;20037;-75
2022/11/23 04:32:51;;;;;;;48.53;26.33;;;;;;;1.39;100.00;152891.81;5013874;28;20073;-76
2022/11/23 04:35:16;;;;;;;47.17;27.27;;;;;;;1.40;100.00;152894.41;5044826;28;20072;-76
2022/11/23 04:37:45;;;;;;;49.03;27.05;;;;;;;1.39;100.00;152893.09;5016333;28;20123;-76
2022/11/23 04:40:12;;;;;;;44.97;25.33;;;;;;;1.40;100.00;152895.66;5028385;28;20051;-75
2022/11/23 04:42:41;;;;;;;48.53;26.17;;;;;;;1.43;100.00;152903.31;5024531;28;20068;-76
2022/11/23 04:45:07;;;;;;;46.28;25.48;;;;;;;1.47;100.00;152912.22;5030439;28;20110;-75
2022/11/23 04:47:32;;;;;;;49.58;26.90;;;;;;;1.47;100.00;152912.22;5032674;28;20406;-75
2022/11/23 04:50:03;;;;;;;43.08;26.23;;;;;;;1.40;100.00;152894.41;5029981;28;20041;-75
2022/11/23 04:52:28;;;;;;;48.00;25.63;;;;;;;1.47;100.00;152912.22;5037178;28;20037;-75
2022/11/23 04:54:55;;;;;;;44.33;25.55;;;;;;;1.45;100.00;152908.41;5048114;28;20068;-75
2022/11/23 04:57:22;;;;;;;43.50;25.60;;;;;;;1.45;100.00;152908.41;5043508;28;20029;-76
2022/11/23 04:59:50;;;;;;;47.47;25.23;;;;;;;1.48;100.00;152916.03;5032021;28;20083;-76
2022/11/23 05:02:15;;;;;;;45.25;24.98;;;;;;;1.42;100.00;152899.50;5019938;28;20548;-75
2022/11/23 05:04:57;;;;;;;47.75;26.02;;;;;;;1.44;100.00;152904.59;5015065;28;20071;-75
2022/11/23 05:07:27;;;;;;;47.53;25.42;;;;;;;1.44;100.00;152904.59;5038447;28;20044;-75
2022/11/23 05:09:57;;;;;;;42.33;24.90;;;;;;;1.46;100.00;152910.94;5015694;28;20025;-76
2022/11/23 05:12:24;;;;;;;49.45;25.33;;;;;;;1.42;100.00;152899.50;5031590;28;20043;-75
2022/11/23 05:14:50;;;;;;;45.28;26.02;;;;;;;1.48;100.00;152914.78;5030135;28;20394;-76
2022/11/23 05:17:24;;;;;;;45.13;24.58;;;;;;;1.45;100.00;152907.09;5013699;28;20518;-74
2022/11/23 05:19:52;;;;;;;42.15;25.30;;;;;;;1.43;100.00;152902.00;5045032;28;20056;-75
2022/11/23 05:22:18;;;;;;;49.22;27.33;;;;;;;1.45;100.00;152907.09;5028810;28;20037;-76
2022/11/23 05:24:44;;;;;;;50.00;27.42;;;;;;;1.42;100.00;152900.75;5050946;28;20075;-74
2022/11/23 05:27:14;;;;;;;50.03;27.05;;;;;;;1.36;100.00;152886.72;5045518;28;20068;-76
2022/11/23 05:29:40;;;;;;;51.45;26.85;;;;;;;1.41;100.00;152896.91;5031816;28;20134;-76
2022/11/23 05:32:06;;;;;;;51.22;27.88;;;;;;;1.35;100.00;152884.16;5045521;28;20033;-76
2022/11/23 05:34:32;;;;;;;51.75;28.70;;;;;;;1.39;100.00;152891.81;5048878;28;20040;-76
2022/11/23 05:37:00;;;;;;;54.97;28.08;;;;;;;1.40;100.00;152895.66;5048046;28;20115;-76
2022/11/23 05:39:25;;;;;;;53.58;29.23;;;;;;;1.40;100.00;152894.41;5029825;28;20574;-77
2022/11/23 05:41:52;;;;;;;51.92;27.65;;;;;;;1.44;100.00;152905.84;5026750;28;20498;-76
2022/11/23 05:44:28;;;;;;;51.30;26.98;;;;;;;1.46;100.00;152909.69;5045249;28;20041;-76
2022/11/23 05:46:54;;;;;;;56.95;27.65;;;;;;;1.42;100.00;152900.75;5044576;28;20079;-76
2022/11/23 05:49:20;;;;;;;52.30;28.45;;;;;;;1.50;100.00;152921.13;5026162;28;20033;-77
2022/11/23 05:51:46;;;;;;;53.00;27.52;;;;;;;1.45;100.00;152908.41;5027431;28;20142;-76
2022/11/23 05:54:12;;;;;;;48.30;25.35;;;;;;;1.51;100.00;152923.72;5025681;28;20033;-76
2022/11/23 05:56:42;;;;;;;42.42;25.33;;;;;;;1.53;100.00;152928.81;5033425;28;20045;-76
2022/11/23 05:59:14;;;;;;;53.55;25.10;;;;;;;1.52;100.00;152924.97;5025558;28;20834;-78
2022/11/23 06:01:42;;;;;;;45.00;25.50;;;;;;;1.49;100.00;152918.59;5010936;28;20044;-75
2022/11/23 06:04:12;;;;;;;47.58;26.48;;;;;;;1.45;100.00;152908.41;5023588;28;20049;-76
2022/11/23 06:06:42;;;;;;;48.35;26.50;;;;;;;1.49;100.00;152917.34;5044318;28;20045;-75
2022/11/23 06:09:09;;;;;;;46.42;26.05;;;;;;;1.44;100.00;152904.59;5043247;28;20028;-75
2022/11/23 06:11:38;;;;;;;52.38;26.38;;;;;;;1.46;100.00;152909.69;5028666;28;20063;-76
2022/11/23 06:14:09;;;;;;;50.70;27.13;;;;;;;1.60;100.00;152944.09;5027847;28;20038;-76
2022/11/23 06:16:35;;;;;;;43.83;25.52;;;;;;;1.66;100.00;152959.44;5031740;28;20025;-74
2022/11/23 06:19:12;;;;;;;40.47;22.88;;;;;;;1.68;100.00;152965.78;5028104;28;20679;-76
2022/11/23 06:21:40;;;;;;;47.40;25.80;;;;;;;1.64;100.00;152955.59;5026283;28;20043;-76
2022/11/23 06:24:06;;;;;;;46.90;25.20;;;;;;;1.61;100.00;152947.91;5027794;28;20033;-76
2022/11/23 06:26:33;;;;;;;52.63;25.58;;;;;;;1.56;100.00;152935.16;5040060;28;20217;-76
2022/11/23 06:28:59;;;;;;;46.25;24.95;;;;;;;1.63;100.00;152951.75;5032420;28;20512;-76
2022/11/23 06:31:24;;;;;;;42.03;25.05;;;;;;;1.62;100.00;152949.19;5047332;28;20398;-76
2022/11/23 06:33:51;;;;;;;46.40;24.95;;;;;;;1.68;100.00;152965.78;5048619;28;20067;-76
2022/11/23 06:36:17;;;;;;;46.03;26.20;;;;;;;1.68;100.00;152965.78;5030363;28;20486;-76
2022/11/23 06:38:47;;;;;;;43.90;24.35;;;;;;;1.74;100.00;152979.81;5026376;28;20048;-76
2022/11/23 06:41:16;;;;;;;38.22;23.92;;;;;;;1.74;100.00;152979.81;5037985;28;20064;-76
2022/11/23 06:43:45;;;;;;;46.08;24.40;;;;;;;1.82;100.00;153000.19;5030984;28;20036;-76
2022/11/23 06:46:16;;;;;;;44.85;24.63;;;;;;;1.75;100.00;152982.34;5025009;28;20037;-76
2022/11/23 06:48:44;;;;;;;48.17;25.05;;;;;;;1.75;100.00;152983.66;5009554;28;20034;-75
2022/11/23 06:51:11;;;;;;;48.35;24.58;;;;;;;1.78;100.00;152988.75;5011173;28;20106;-74
2022/11/23 06:53:38;;;;;;;40.72;23.95;;;;;;;1.71;100.00;152973.44;5030258;28;20053;-76
2022/11/23 06:56:06;;;;;;;42.17;23.60;;;;;;;1.77;100.00;152987.44;5015778;28;20041;-75
2022/11/23 06:58:33;;;;;;;45.60;23.83;;;;;;;1.83;100.00;153001.47;5031601;28;20029;-76
2022/11/23 07:01:05;;;;;;;44.50;24.38;;;;;;;1.79;100.00;152992.56;5021337;28;20048;-75
2022/11/23 07:03:37;;;;;;;46.40;24.40;;;;;;;1.75;100.00;152982.34;5026973;28;20090;-76
2022/11/23 07:06:11;;;;;;;47.92;24.52;;;;;;;1.74;100.00;152979.81;5025402;28;20049;-75
2022/11/23 07:08:42;;;;;;;41.78;23.85;;;;;;;1.83;100.00;153001.47;5041107;28;20413;-75
2022/11/23 07:11:24;;;;;;;39.33;23.95;;;;;;;1.80;100.00;152995.09;5029101;28;20037;-76
2022/11/23 07:13:49;;;;;;;42.38;24.20;;;;;;;1.83;100.00;153002.78;5046665;28;20041;-75
2022/11/23 07:16:15;;;;;;;38.88;23.55;;;;;;;1.92;100.00;153025.72;5028586;28;20735;-76
2022/11/23 07:18:41;;;;;;;48.40;25.55;;;;;;;1.86;100.00;153009.13;5024660;28;20037;-76
2022/11/23 07:21:07;;;;;;;43.83;23.95;;;;;;;1.86;100.00;153009.13;5038577;28;20037;-74
2022/11/23 07:23:37;;;;;;;47.10;22.73;;;;;;;1.83;100.00;153001.47;5047253;28;20394;-75
2022/11/23 07:26:03;;;;;;;43.90;24.05;;;;;;;1.88;100.00;153014.22;5042367;28;20506;-75
2022/11/23 07:28:28;;;;;;;40.83;23.73;;;;;;;1.94;100.00;153029.53;5054863;28;20033;-75
2022/11/23 07:30:54;;;;;;;39.17;23.25;;;;;;;1.88;100.00;153015.50;5029799;28;20487;-75
2022/11/23 07:33:21;;;;;;;43.80;23.88;;;;;;;1.89;100.00;153016.78;5028902;28;20029;-77
2022/11/23 07:35:47;;;;;;;41.75;22.67;;;;;;;1.96;100.00;153034.66;5017991;28;20502;-75
2022/11/23 07:38:13;;;;;;;43.03;22.58;;;;;;;1.98;100.00;153039.75;5050727;28;20087;-76
2022/11/23 07:40:41;;;;;;;45.40;23.25;;;;;;;2.03;100.00;153052.47;5034420;28;20462;-76
2022/11/23 07:43:15;;;;;;;40.33;22.60;;;;;;;2.10;100.00;153070.34;5033739;28;20035;-75
2022/11/23 07:45:46;;;;;;;39.17;22.00;;;;;;;2.16;100.00;153084.38;5051315;28;20083;-75
2022/11/23 07:48:15;;;;;;;43.97;21.77;;;;;;;2.16;100.00;153084.38;5033761;28;20040;-76
2022/11/23 07:50:41;;;;;;;35.72;22.25;;;;;;;2.19;100.00;153090.78;5034127;28;20107;-76
2022/11/23 07:53:07;;;;;;;41.92;22.48;;;;;;;2.23;100.00;153102.25;5050142;28;20119;-76
2022/11/23 07:55:33;;;;;;;38.42;21.55;;;;;;;2.22;100.00;153098.41;5029252;28;20036;-75
2022/11/23 07:57:59;;;;;;;35.45;20.92;;;;;;;2.28;100.00;153113.72;5034727;28;20068;-76
2022/11/23 08:00:27;;;;;;;37.67;21.27;;;;;;;2.24;100.00;153103.50;5029742;28;20553;-75
2022/11/23 08:02:53;;;;;;;36.75;21.58;;;;;;;2.27;100.00;153111.19;5030551;28;20363;-75
2022/11/23 08:05:18;;;;;;;36.67;21.85;;;;;;;2.30;100.00;153120.13;5050069;28;20048;-74
2022/11/23 08:07:44;;;;;;;38.33;20.55;;;;;;;2.29;100.00;153117.53;5034363;28;20036;-76
2022/11/23 08:10:11;;;;;;;37.05;20.40;;;;;;;2.36;100.00;153134.16;5018767;28;20041;-75
2022/11/23 08:12:37;;;;;;;34.67;20.35;;;;;;;2.40;100.00;153143.09;5016901;28;20040;-75
2022/11/23 08:15:04;;;;;;;37.35;20.10;;;;;;;2.49;100.00;153167.31;5043082;28;20044;-76
2022/11/23 08:17:29;;;;;;;46.05;19.83;;;;;;;2.52;100.00;153175.00;5017228;28;20965;-76
2022/11/23 08:19:55;;;;;;;35.78;19.13;;;;;;;2.60;100.00;153194.13;5033256;28;20048;-76
2022/11/23 08:22:21;;;;;;;33.88;19.02;;;;;;;2.63;100.00;153200.50;5016737;28;20149;-76
2022/11/23 08:24:47;;;;;;;35.97;19.85;;;;;;;2.59;100.00;153190.28;5043356;28;20041;-76
2022/11/23 08:27:13;;;;;;;32.22;17.88;;;;;;;2.78;100.00;153238.75;5029677;28;20040;-75
2022/11/23 08:29:38;;;;;;;27.88;17.30;;;;;;;2.81;100.00;153246.44;5028370;28;20041;-76
2022/11/23 08:32:04;;;;;;;29.38;17.60;;;;;;;2.79;100.00;153240.03;5032633;28;20508;-75
2022/11/23 08:34:29;;;;;;;28.20;17.98;;;;;;;2.85;100.00;153255.38;5032998;28;20029;-75
2022/11/23 08:36:56;;;;;;;27.77;17.77;;;;;;;2.87;100.00;153261.75;5017179;28;20051;-75
2022/11/23 08:39:21;;;;;;;25.73;16.27;;;;;;;2.90;100.00;153269.41;5048609;28;20082;-75
2022/11/23 08:41:47;;;;;;;29.35;16.20;;;;;;;2.96;100.00;153283.47;5017066;28;20041;-76
2022/11/23 08:44:13;;;;;;;28.00;15.88;;;;;;;2.91;100.00;153271.94;5016689;28;20041;-76
2022/11/23 08:46:38;;;;;;;27.50;16.27;;;;;;;2.93;100.00;153275.78;5015439;28;20060;-75
2022/11/23 08:49:06;;;;;;;23.67;14.88;;;;;;;2.96;100.00;153282.16;5016575;28;20032;-75
2022/11/23 08:51:31;;;;;;;31.67;16.75;;;;;;;2.97;100.00;153284.72;5031095;28;20486;-75
2022/11/23 08:53:57;;;;;;;31.48;16.20;;;;;;;3.00;100.00;153293.66;5016066;28;20045;-75
2022/11/23 08:56:23;;;;;;;24.95;15.88;;;;;;;3.08;100.00;153312.78;5030502;28;20036;-75
2022/11/23 08:58:48;;;;;;;26.15;15.43;;;;;;;3.17;100.00;153335.78;5025892;28;20080;-76
2022/11/23 09:01:15;;;;;;;23.67;14.82;;;;;;;3.25;100.00;153354.94;5018962;28;20048;-75
2022/11/23 09:03:42;;;;;;;22.00;13.95;;;;;;;3.37;100.00;153385.59;5029657;28;20041;-75
2022/11/23 09:06:08;;;;;;;26.50;13.98;;;;;;;3.46;100.00;153407.25;5028492;28;20128;-75
2022/11/23 09:08:34;;;;;;;20.48;12.90;;;;;;;3.56;100.00;153431.50;5026725;28;20119;-75
2022/11/23 09:11:02;;;;;;;23.33;13.10;;;;;;;3.56;100.00;153431.50;5045767;28;20037;-76
2022/11/23 09:13:28;;;;;;;24.25;13.50;;;;;;;3.59;100.00;153440.47;5044449;28;20029;-75
2022/11/23 09:16:02;;;;;;;21.55;13.30;;;;;;;3.56;100.00;153432.81;5032031;28;20043;-75
2022/11/23 09:18:32;;;;;;;23.20;14.15;;;;;;;3.60;100.00;153443.03;5039818;28;20029;-75
2022/11/23 09:21:01;;;;;;;22.75;13.15;;;;;;;3.65;100.00;153454.50;5048761;28;20430;-74
2022/11/23 09:23:27;;;;;;;26.35;13.85;;;;;;;3.73;100.00;153473.66;5047013;28;20699;-76
2022/11/23 09:25:52;;;;;;;21.50;13.23;;;;;;;3.90;100.00;153517.13;5032136;28;20033;-75
2022/11/23 09:28:18;;;;;;;24.85;12.63;;;;;;;3.97;100.00;153534.94;5029066;28;20059;-76
2022/11/23 09:30:46;;;;;;;22.67;12.95;;;;;;;4.00;100.00;153542.63;5025823;28;20174;-75
2022/11/23 09:33:12;;;;;;;24.17;12.75;;;;;;;4.09;100.00;153565.63;5047407;28;20483;-74
2022/11/23 09:35:38;;;;;;;18.92;11.60;;;;;;;4.20;100.00;153592.47;5031725;28;20085;-74
2022/11/23 09:38:03;;;;;;;22.27;11.60;;;;;;;4.24;100.00;153601.41;5032142;28;20504;-75
2022/11/23 09:40:33;;;;;;;20.23;11.30;;;;;;;4.28;100.00;153611.63;5057824;28;20021;-75
2022/11/23 09:43:36;;;;;;;18.33;11.20;;;;;;;4.28;100.00;153612.88;5042433;28;20047;-75
2022/11/23 09:46:32;;;;;;;16.50;10.73;;;;;;;4.24;100.00;153602.69;5026439;28;20103;-75
2022/11/23 09:49:20;;;;;;;19.75;10.88;;;;;;;4.18;100.00;153587.38;5007203;28;20569;-76
2022/11/23 09:51:47;;;;;;;19.58;10.35;;;;;;;4.05;100.00;153554.09;5017611;28;20029;-76
2022/11/23 09:54:35;;;;;;;19.80;11.40;;;;;;;4.09;100.00;153565.63;5045322;28;20041;-75
2022/11/23 09:57:03;;;;;;;21.88;10.88;;;;;;;4.17;100.00;153584.78;5036977;28;20048;-75
2022/11/23 09:59:29;;;;;;;19.45;10.02;;;;;;;4.25;100.00;153605.22;5046088;28;20040;-76
2022/11/23 10:01:56;;;;;;;17.67;10.18;;;;;;;4.33;100.00;153623.09;5045164;28;20045;-75
2022/11/23 10:04:23;;;;;;;22.25;10.43;;;;;;;4.41;100.00;153643.56;5030777;28;20040;-75
2022/11/23 10:07:17;;;;;;;16.63;9.48;;;;;;;4.66;100.00;153706.16;5025977;28;20095;-75
2022/11/23 10:09:51;;;;;;;20.65;9.07;;;;;;;5.02;100.00;153796.91;5014987;28;20040;-76
2022/11/23 10:12:44;;;;;;;18.20;9.20;;;;;;;5.20;100.00;153841.66;5030494;28;20048;-76
2022/11/23 10:15:13;;;;;;;20.55;8.65;;;;;;;5.34;100.00;153876.16;5031195;28;20044;-75
2022/11/23 10:18:04;;;;;;;16.90;7.70;;;;;;;5.36;100.00;153881.28;5014814;28;20041;-76
2022/11/23 10:20:51;;;;;;;15.18;7.47;;;;;;;5.24;100.00;153851.88;5028895;28;20673;-76
2022/11/23 10:23:36;;;;;;;15.90;7.80;;;;;;;5.15;100.00;153827.59;5006536;28;20033;-75
2022/11/23 10:26:02;;;;;;;13.30;7.25;;;;;;;5.12;100.00;153821.16;5047684;28;20041;-75
2022/11/23 10:28:31;;;;;;;16.42;8.95;;;;;;;5.14;100.00;153825.00;5029432;28;20052;-75
2022/11/23 10:31:04;;;;;;;14.93;6.82;;;;;;;5.07;100.00;153808.44;5032992;28;20037;-74
2022/11/23 10:33:38;;;;;;;13.50;6.85;;;;;;;5.13;100.00;153823.75;5025511;28;20033;-76
2022/11/23 10:36:04;;;;;;;16.27;6.70;;;;;;;5.24;100.00;153851.88;5044197;28;20064;-75
2022/11/23 10:38:31;;;;;;;16.95;6.47;;;;;;;5.27;100.00;153858.25;5030585;28;20705;-75
2022/11/23 10:41:03;;;;;;;13.73;6.70;;;;;;;5.36;100.00;153880.00;5024200;28;20499;-74
2022/11/23 10:43:41;;;;;;;14.85;6.68;;;;;;;5.35;100.00;153877.44;5046344;28;20104;-76
2022/11/23 10:46:22;;;;;;;14.18;6.82;;;;;;;5.36;100.00;153881.28;5046906;28;20569;-75
2022/11/23 10:48:50;;;;;;;14.23;6.32;;;;;;;5.27;100.00;153858.25;5057334;28;20037;-75
2022/11/23 10:51:15;;;;;;;12.77;6.68;;;;;;;5.25;100.00;153853.13;5023299;28;20032;-75
2022/11/23 10:53:43;;;;;;;11.55;6.88;;;;;;;5.27;100.00;153858.25;5042838;28;20488;-76
2022/11/23 10:56:12;;;;;;;13.40;6.80;;;;;;;5.30;100.00;153864.66;5044693;28;20482;-75
2022/11/23 10:58:43;;;;;;;13.27;7.95;;;;;;;5.36;100.00;153881.28;5026816;28;20033;-74
2022/11/23 11:01:23;;;;;;;22.30;12.18;;;;;;;5.36;100.00;153881.28;5024695;28;20414;-76
2022/11/23 11:03:50;;;;;;;18.30;11.98;;;;;;;5.37;100.00;153882.53;5025257;28;20033;-75
2022/11/23 11:06:29;;;;;;;14.77;7.90;;;;;;;5.30;100.00;153865.94;5051924;28;20128;-76
2022/11/23 11:08:57;;;;;;;16.38;9.55;;;;;;;5.38;100.00;153886.38;5026691;28;20033;-75
2022/11/23 11:11:36;;;;;;;18.30;7.60;;;;;;;5.34;100.00;153874.91;5026897;28;20143;-75
2022/11/23 11:14:23;;;;;;;13.13;7.50;;;;;;;5.31;100.00;153867.19;5047161;28;20036;-75
2022/11/23 11:16:52;;;;;;;15.45;7.90;;;;;;;5.18;100.00;153836.56;5026111;28;20052;-75